sensor_id;sensor_type;location;lat;lon;timestamp;pressure;altitude;pressure_sealevel;temperature;humidity
28000;BME280;15328;50.860;10.562;2022-10-30T00:04:42;96847.63;;;21.07;42.44
28000;BME280;15328;50.860;10.562;2022-10-30T00:09:42;96847.91;;;21.15;42.87
28000;BME280;15328;50.860;10.562;2022-10-30T00:14:43;96846.03;;;21.01;44.25
28000;BME280;15328;50.860;10.562;2022-10-30T00:19:43;96841.47;;;20.81;45.27
28000;BME280;15328;50.860;10.562;2022-10-30T00:24:43;96838.50;;;20.77;45.28
28000;BME280;15328;50.860;10.562;2022-10-30T00:29:44;96827.16;;;20.65;45.79
28000;BME280;15328;50.860;10.562;2022-10-30T00:34:44;96826.09;;;20.66;46.09
28000;BME280;15328;50.860;10.562;2022-10-30T00:39:44;96817.97;;;20.71;46.23
28000;BME280;15328;50.860;10.562;2022-10-30T00:44:48;96821.19;;;20.73;46.09
28000;BME280;15328;50.860;10.562;2022-10-30T00:49:52;96814.47;;;20.71;46.28
28000;BME280;15328;50.860;10.562;2022-10-30T00:54:54;96815.00;;;20.62;46.41
28000;BME280;15328;50.860;10.562;2022-10-30T00:59:56;96820.69;;;20.66;46.60
28000;BME280;15328;50.860;10.562;2022-10-30T01:04:56;96805.81;;;20.68;46.25
28000;BME280;15328;50.860;10.562;2022-10-30T01:09:57;96808.00;;;20.56;46.54
28000;BME280;15328;50.860;10.562;2022-10-30T01:14:59;96801.78;;;20.41;47.08
28000;BME280;15328;50.860;10.562;2022-10-30T01:30:56;96810.44;;;20.58;46.55
28000;BME280;15328;50.860;10.562;2022-10-30T01:41:18;96803.94;;;20.38;46.80
28000;BME280;15328;50.860;10.562;2022-10-30T01:46:32;96805.00;;;20.22;46.99
28000;BME280;15328;50.860;10.562;2022-10-30T02:02:30;96791.50;;;20.07;47.02
28000;BME280;15328;50.860;10.562;2022-10-30T02:07:32;96786.66;;;20.09;46.28
28000;BME280;15328;50.860;10.562;2022-10-30T02:12:32;96770.69;;;20.18;46.01
28000;BME280;15328;50.860;10.562;2022-10-30T02:17:33;96774.22;;;20.23;45.72
28000;BME280;15328;50.860;10.562;2022-10-30T02:22:33;96758.81;;;20.14;45.10
28000;BME280;15328;50.860;10.562;2022-10-30T02:27:33;96768.81;;;20.13;44.85
28000;BME280;15328;50.860;10.562;2022-10-30T02:32:34;96766.66;;;19.95;45.64
28000;BME280;15328;50.860;10.562;2022-10-30T02:37:34;96759.38;;;20.11;44.96
28000;BME280;15328;50.860;10.562;2022-10-30T02:42:35;96772.06;;;20.00;45.18
28000;BME280;15328;50.860;10.562;2022-10-30T02:47:35;96778.53;;;20.19;44.98
28000;BME280;15328;50.860;10.562;2022-10-30T02:52:36;96784.22;;;20.33;44.28
28000;BME280;15328;50.860;10.562;2022-10-30T02:57:36;96769.63;;;20.19;44.52
28000;BME280;15328;50.860;10.562;2022-10-30T03:02:36;96789.34;;;20.09;45.33
28000;BME280;15328;50.860;10.562;2022-10-30T03:07:37;96757.47;;;19.96;45.96
28000;BME280;15328;50.860;10.562;2022-10-30T03:12:37;96767.44;;;19.90;46.25
28000;BME280;15328;50.860;10.562;2022-10-30T03:17:37;96767.47;;;20.00;46.08
28000;BME280;15328;50.860;10.562;2022-10-30T03:22:38;96759.66;;;20.04;45.62
28000;BME280;15328;50.860;10.562;2022-10-30T03:27:38;96762.59;;;19.87;45.51
28000;BME280;15328;50.860;10.562;2022-10-30T03:32:38;96766.41;;;20.01;45.10
28000;BME280;15328;50.860;10.562;2022-10-30T03:37:38;96769.91;;;20.02;45.67
28000;BME280;15328;50.860;10.562;2022-10-30T03:42:39;96769.09;;;20.12;44.67
28000;BME280;15328;50.860;10.562;2022-10-30T03:47:40;96769.09;;;20.17;46.13
28000;BME280;15328;50.860;10.562;2022-10-30T03:52:40;96776.91;;;20.13;46.65
28000;BME280;15328;50.860;10.562;2022-10-30T03:57:41;96768.28;;;20.16;47.62
28000;BME280;15328;50.860;10.562;2022-10-30T04:02:48;96769.09;;;20.12;48.34
28000;BME280;15328;50.860;10.562;2022-10-30T04:07:55;96788.25;;;20.10;48.08
28000;BME280;15328;50.860;10.562;2022-10-30T04:13:03;96776.38;;;20.16;48.03
28000;BME280;15328;50.860;10.562;2022-10-30T04:18:05;96770.16;;;19.95;48.34
28000;BME280;15328;50.860;10.562;2022-10-30T04:23:07;96775.56;;;19.85;48.36
28000;BME280;15328;50.860;10.562;2022-10-30T04:28:08;96775.28;;;19.97;48.72
28000;BME280;15328;50.860;10.562;2022-10-30T04:33:12;96772.03;;;19.74;48.99
28000;BME280;15328;50.860;10.562;2022-10-30T04:38:14;96782.00;;;19.69;48.49
28000;BME280;15328;50.860;10.562;2022-10-30T04:43:14;96769.84;;;19.71;48.23
28000;BME280;15328;50.860;10.562;2022-10-30T04:48:16;96767.97;;;19.72;47.87
28000;BME280;15328;50.860;10.562;2022-10-30T04:53:18;96773.09;;;19.68;47.92
28000;BME280;15328;50.860;10.562;2022-10-30T04:58:18;96773.66;;;19.75;47.35
28000;BME280;15328;50.860;10.562;2022-10-30T05:03:23;96777.13;;;19.66;48.02
28000;BME280;15328;50.860;10.562;2022-10-30T05:08:24;96769.31;;;19.69;48.80
28000;BME280;15328;50.860;10.562;2022-10-30T05:13:24;96761.22;;;19.59;49.39
28000;BME280;15328;50.860;10.562;2022-10-30T05:18:24;96759.50;;;19.38;50.72
28000;BME280;15328;50.860;10.562;2022-10-30T05:23:25;96758.69;;;19.32;50.66
28000;BME280;15328;50.860;10.562;2022-10-30T05:28:25;96762.16;;;19.23;50.81
28000;BME280;15328;50.860;10.562;2022-10-30T05:33:25;96758.41;;;19.29;50.58
28000;BME280;15328;50.860;10.562;2022-10-30T05:38:26;96758.94;;;19.21;50.23
28000;BME280;15328;50.860;10.562;2022-10-30T05:43:26;96755.06;;;19.01;50.81
28000;BME280;15328;50.860;10.562;2022-10-30T05:48:26;96743.72;;;18.94;50.75
28000;BME280;15328;50.860;10.562;2022-10-30T05:53:27;96744.47;;;18.84;51.13
28000;BME280;15328;50.860;10.562;2022-10-30T05:58:27;96743.94;;;18.82;50.51
28000;BME280;15328;50.860;10.562;2022-10-30T06:03:27;96741.06;;;19.04;49.40
28000;BME280;15328;50.860;10.562;2022-10-30T06:08:28;96747.19;;;18.90;49.30
28000;BME280;15328;50.860;10.562;2022-10-30T06:13:28;96752.53;;;18.79;49.09
28000;BME280;15328;50.860;10.562;2022-10-30T06:18:28;96750.31;;;18.66;48.69
28000;BME280;15328;50.860;10.562;2022-10-30T06:23:29;96742.06;;;18.88;48.16
28000;BME280;15328;50.860;10.562;2022-10-30T06:28:29;96747.50;;;18.93;47.60
28000;BME280;15328;50.860;10.562;2022-10-30T06:33:29;96747.44;;;18.88;47.16
28000;BME280;15328;50.860;10.562;2022-10-30T06:38:30;96748.22;;;18.78;46.96
28000;BME280;15328;50.860;10.562;2022-10-30T06:43:30;96772.03;;;18.97;46.21
28000;BME280;15328;50.860;10.562;2022-10-30T06:48:30;96766.94;;;19.00;46.32
28000;BME280;15328;50.860;10.562;2022-10-30T06:53:31;96783.63;;;18.97;46.17
28000;BME280;15328;50.860;10.562;2022-10-30T06:58:33;96775.03;;;19.05;45.97
28000;BME280;15328;50.860;10.562;2022-10-30T07:03:38;96788.22;;;18.97;45.98
28000;BME280;15328;50.860;10.562;2022-10-30T07:08:38;96794.72;;;19.11;45.34
28000;BME280;15328;50.860;10.562;2022-10-30T07:13:38;96795.38;;;19.38;45.03
28000;BME280;15328;50.860;10.562;2022-10-30T07:18:39;96801.91;;;19.48;44.45
28000;BME280;15328;50.860;10.562;2022-10-30T07:23:39;96813.28;;;19.55;44.11
28000;BME280;15328;50.860;10.562;2022-10-30T07:28:39;96796.28;;;19.69;43.51
28000;BME280;15328;50.860;10.562;2022-10-30T07:33:39;96808.22;;;19.94;42.99
28000;BME280;15328;50.860;10.562;2022-10-30T07:38:40;96814.97;;;19.96;42.91
28000;BME280;15328;50.860;10.562;2022-10-30T07:43:40;96820.94;;;20.24;42.51
28000;BME280;15328;50.860;10.562;2022-10-30T07:48:40;96812.28;;;20.27;42.35
28000;BME280;15328;50.860;10.562;2022-10-30T07:53:41;96820.94;;;20.54;41.81
28000;BME280;15328;50.860;10.562;2022-10-30T07:58:41;96826.59;;;20.78;40.75
28000;BME280;15328;50.860;10.562;2022-10-30T08:03:41;96829.56;;;20.92;41.02
28000;BME280;15328;50.860;10.562;2022-10-30T08:08:42;96821.38;;;21.27;40.60
28000;BME280;15328;50.860;10.562;2022-10-30T08:13:42;96828.44;;;21.13;40.08
28000;BME280;15328;50.860;10.562;2022-10-30T08:18:43;96834.66;;;21.14;40.64
28000;BME280;15328;50.860;10.562;2022-10-30T08:23:43;96847.81;;;21.46;40.28
28000;BME280;15328;50.860;10.562;2022-10-30T08:28:43;96841.47;;;21.71;40.20
28000;BME280;15328;50.860;10.562;2022-10-30T08:33:44;96850.13;;;21.73;40.44
28000;BME280;15328;50.860;10.562;2022-10-30T08:38:44;96858.44;;;21.92;40.41
28000;BME280;15328;50.860;10.562;2022-10-30T08:43:44;96850.31;;;21.92;39.46
28000;BME280;15328;50.860;10.562;2022-10-30T08:48:44;96842.00;;;22.17;39.63
28000;BME280;15328;50.860;10.562;2022-10-30T08:53:47;96848.81;;;22.19;38.50
28000;BME280;15328;50.860;10.562;2022-10-30T08:58:49;96844.66;;;22.61;39.20
28000;BME280;15328;50.860;10.562;2022-10-30T09:03:50;96852.13;;;23.08;39.50
28000;BME280;15328;50.860;10.562;2022-10-30T09:08:50;96848.84;;;23.54;38.28
28000;BME280;15328;50.860;10.562;2022-10-30T09:13:51;96847.63;;;23.89;37.96
28000;BME280;15328;50.860;10.562;2022-10-30T09:18:51;96847.47;;;24.37;36.87
28000;BME280;15328;50.860;10.562;2022-10-30T09:23:52;96850.88;;;25.68;34.64
28000;BME280;15328;50.860;10.562;2022-10-30T09:28:52;96860.19;;;27.68;32.08
28000;BME280;15328;50.860;10.562;2022-10-30T09:33:53;96869.09;;;29.88;28.90
28000;BME280;15328;50.860;10.562;2022-10-30T09:38:53;96866.03;;;31.51;27.00
28000;BME280;15328;50.860;10.562;2022-10-30T09:55:26;96876.78;;;35.36;21.16
28000;BME280;15328;50.860;10.562;2022-10-30T10:00:38;96879.59;;;35.63;19.92
28000;BME280;15328;50.860;10.562;2022-10-30T10:05:57;96869.09;;;35.29;19.84
28000;BME280;15328;50.860;10.562;2022-10-30T10:11:08;96871.25;;;35.17;20.15
28000;BME280;15328;50.860;10.562;2022-10-30T10:16:28;96862.41;;;34.50;20.21
28000;BME280;15328;50.860;10.562;2022-10-30T10:21:29;96861.31;;;34.00;21.39
28000;BME280;15328;50.860;10.562;2022-10-30T10:32:03;96856.00;;;32.44;22.82
28000;BME280;15328;50.860;10.562;2022-10-30T10:42:22;96869.53;;;30.40;24.82
28000;BME280;15328;50.860;10.562;2022-10-30T10:52:34;96858.53;;;29.69;26.65
28000;BME280;15328;50.860;10.562;2022-10-30T10:57:39;96855.53;;;29.53;26.53
28000;BME280;15328;50.860;10.562;2022-10-30T11:02:58;96846.84;;;29.51;27.05
28000;BME280;15328;50.860;10.562;2022-10-30T11:08:26;96848.78;;;30.10;27.27
28000;BME280;15328;50.860;10.562;2022-10-30T11:13:35;96850.28;;;30.28;25.81
28000;BME280;15328;50.860;10.562;2022-10-30T11:18:36;96846.66;;;30.16;25.89
28000;BME280;15328;50.860;10.562;2022-10-30T11:23:46;96848.91;;;29.84;25.96
28000;BME280;15328;50.860;10.562;2022-10-30T11:29:13;96844.31;;;29.76;27.51
28000;BME280;15328;50.860;10.562;2022-10-30T11:39:28;96837.94;;;29.63;27.03
28000;BME280;15328;50.860;10.562;2022-10-30T11:44:55;96835.13;;;29.72;27.48
28000;BME280;15328;50.860;10.562;2022-10-30T11:49:59;96837.88;;;29.72;27.23
28000;BME280;15328;50.860;10.562;2022-10-30T11:55:09;96829.06;;;29.19;25.43
28000;BME280;15328;50.860;10.562;2022-10-30T12:00:18;96831.59;;;28.86;26.12
28000;BME280;15328;50.860;10.562;2022-10-30T12:10:27;96823.22;;;28.83;26.91
28000;BME280;15328;50.860;10.562;2022-10-30T12:15:35;96813.94;;;28.41;25.94
28000;BME280;15328;50.860;10.562;2022-10-30T12:20:36;96817.91;;;28.78;26.32
28000;BME280;15328;50.860;10.562;2022-10-30T12:25:37;96822.25;;;28.70;26.35
28000;BME280;15328;50.860;10.562;2022-10-30T12:31:24;96806.31;;;28.89;26.01
28000;BME280;15328;50.860;10.562;2022-10-30T12:36:09;96799.25;;;28.80;26.39
28000;BME280;15328;50.860;10.562;2022-10-30T12:41:17;96805.16;;;29.37;25.87
28000;BME280;15328;50.860;10.562;2022-10-30T12:46:31;96808.34;;;29.77;23.92
28000;BME280;15328;50.860;10.562;2022-10-30T12:57:07;96801.75;;;31.92;21.23
28000;BME280;15328;50.860;10.562;2022-10-30T13:02:19;96804.66;;;33.24;19.95
28000;BME280;15328;50.860;10.562;2022-10-30T13:12:37;96805.47;;;33.56;18.59
28000;BME280;15328;50.860;10.562;2022-10-30T13:17:38;96792.56;;;31.15;20.96
28000;BME280;15328;50.860;10.562;2022-10-30T13:27:54;96782.09;;;29.09;23.93
28000;BME280;15328;50.860;10.562;2022-10-30T13:33:24;96780.13;;;27.67;25.84
28000;BME280;15328;50.860;10.562;2022-10-30T13:38:32;96777.03;;;26.81;27.26
28000;BME280;15328;50.860;10.562;2022-10-30T13:49:16;96772.06;;;25.57;30.22
28000;BME280;15328;50.860;10.562;2022-10-30T13:54:54;96758.19;;;25.18;31.40
28000;BME280;15328;50.860;10.562;2022-10-30T14:00:01;96770.75;;;24.86;32.13
28000;BME280;15328;50.860;10.562;2022-10-30T14:15:42;96766.47;;;24.39;33.85
28000;BME280;15328;50.860;10.562;2022-10-30T14:20:48;96772.63;;;24.45;33.52
28000;BME280;15328;50.860;10.562;2022-10-30T14:31:04;96760.31;;;24.15;34.49
28000;BME280;15328;50.860;10.562;2022-10-30T14:36:19;96766.66;;;23.91;35.38
28000;BME280;15328;50.860;10.562;2022-10-30T14:41:40;96767.41;;;23.54;36.10
28000;BME280;15328;50.860;10.562;2022-10-30T14:51:55;96773.78;;;23.02;37.52
28000;BME280;15328;50.860;10.562;2022-10-30T14:57:02;96772.09;;;22.53;38.72
28000;BME280;15328;50.860;10.562;2022-10-30T15:02:25;96773.25;;;22.47;38.68
28000;BME280;15328;50.860;10.562;2022-10-30T15:07:47;96769.09;;;22.55;39.10
28000;BME280;15328;50.860;10.562;2022-10-30T15:13:26;96782.38;;;22.56;39.46
28000;BME280;15328;50.860;10.562;2022-10-30T15:18:20;96780.28;;;22.48;39.62
28000;BME280;15328;50.860;10.562;2022-10-30T15:23:24;96781.09;;;22.43;39.70
28000;BME280;15328;50.860;10.562;2022-10-30T15:28:31;96786.44;;;22.25;39.83
28000;BME280;15328;50.860;10.562;2022-10-30T15:33:34;96780.38;;;22.04;40.13
28000;BME280;15328;50.860;10.562;2022-10-30T15:38:36;96783.06;;;22.04;39.54
28000;BME280;15328;50.860;10.562;2022-10-30T15:43:40;96782.34;;;21.88;40.13
28000;BME280;15328;50.860;10.562;2022-10-30T15:48:44;96775.31;;;21.87;39.81
28000;BME280;15328;50.860;10.562;2022-10-30T15:53:48;96790.53;;;21.78;40.15
28000;BME280;15328;50.860;10.562;2022-10-30T15:58:58;96779.47;;;21.74;40.25
28000;BME280;15328;50.860;10.562;2022-10-30T16:04:00;96783.31;;;21.63;40.02
28000;BME280;15328;50.860;10.562;2022-10-30T16:09:02;96789.13;;;21.36;39.81
28000;BME280;15328;50.860;10.562;2022-10-30T16:14:13;96785.28;;;21.47;39.44
28000;BME280;15328;50.860;10.562;2022-10-30T16:19:21;96772.91;;;21.31;38.88
28000;BME280;15328;50.860;10.562;2022-10-30T16:24:30;96778.88;;;21.23;38.90
28000;BME280;15328;50.860;10.562;2022-10-30T16:29:32;96778.56;;;21.35;38.59
28000;BME280;15328;50.860;10.562;2022-10-30T16:34:33;96783.75;;;21.31;38.47
28000;BME280;15328;50.860;10.562;2022-10-30T16:39:36;96779.22;;;21.01;38.41
28000;BME280;15328;50.860;10.562;2022-10-30T16:44:38;96765.94;;;21.15;37.92
28000;BME280;15328;50.860;10.562;2022-10-30T16:49:45;96780.31;;;21.00;37.50
28000;BME280;15328;50.860;10.562;2022-10-30T16:55:06;96795.16;;;21.13;37.14
28000;BME280;15328;50.860;10.562;2022-10-30T17:00:17;96787.63;;;20.99;37.23
28000;BME280;15328;50.860;10.562;2022-10-30T17:05:29;96786.47;;;21.21;37.05
28000;BME280;15328;50.860;10.562;2022-10-30T17:10:41;96787.03;;;21.08;37.12
28000;BME280;15328;50.860;10.562;2022-10-30T17:15:42;96793.00;;;21.15;37.46
28000;BME280;15328;50.860;10.562;2022-10-30T17:20:43;96801.59;;;21.32;37.20
28000;BME280;15328;50.860;10.562;2022-10-30T17:25:43;96804.31;;;21.27;37.30
28000;BME280;15328;50.860;10.562;2022-10-30T17:30:44;96811.38;;;21.13;37.68
28000;BME280;15328;50.860;10.562;2022-10-30T17:35:44;96800.31;;;21.09;38.09
28000;BME280;15328;50.860;10.562;2022-10-30T17:40:45;96802.19;;;21.04;38.30
28000;BME280;15328;50.860;10.562;2022-10-30T17:45:45;96812.75;;;21.10;38.51
28000;BME280;15328;50.860;10.562;2022-10-30T17:50:45;96819.78;;;21.06;38.94
28000;BME280;15328;50.860;10.562;2022-10-30T17:56:00;96818.72;;;21.02;39.44
28000;BME280;15328;50.860;10.562;2022-10-30T18:01:01;96820.09;;;20.89;40.34
28000;BME280;15328;50.860;10.562;2022-10-30T18:06:02;96817.69;;;20.73;40.93
28000;BME280;15328;50.860;10.562;2022-10-30T18:11:03;96821.22;;;20.83;40.71
28000;BME280;15328;50.860;10.562;2022-10-30T18:16:04;96823.13;;;20.67;41.51
28000;BME280;15328;50.860;10.562;2022-10-30T18:21:08;96828.50;;;20.83;41.06
28000;BME280;15328;50.860;10.562;2022-10-30T18:26:15;96831.22;;;20.73;41.51
28000;BME280;15328;50.860;10.562;2022-10-30T18:31:19;96829.63;;;20.61;42.00
28000;BME280;15328;50.860;10.562;2022-10-30T18:36:22;96827.16;;;20.65;42.13
28000;BME280;15328;50.860;10.562;2022-10-30T18:41:31;96835.81;;;20.52;42.72
28000;BME280;15328;50.860;10.562;2022-10-30T18:46:33;96831.50;;;20.46;43.01
28000;BME280;15328;50.860;10.562;2022-10-30T18:51:33;96840.41;;;20.46;43.51
28000;BME280;15328;50.860;10.562;2022-10-30T18:56:33;96837.44;;;20.48;43.42
28000;BME280;15328;50.860;10.562;2022-10-30T19:01:34;96846.34;;;20.38;43.31
28000;BME280;15328;50.860;10.562;2022-10-30T19:06:34;96848.78;;;20.34;43.28
28000;BME280;15328;50.860;10.562;2022-10-30T19:11:37;96829.00;;;19.98;43.70
28000;BME280;15328;50.860;10.562;2022-10-30T19:16:37;96835.25;;;20.14;43.16
28000;BME280;15328;50.860;10.562;2022-10-30T19:21:38;96850.09;;;20.17;42.97
28000;BME280;15328;50.860;10.562;2022-10-30T19:26:38;96843.09;;;20.11;42.84
28000;BME280;15328;50.860;10.562;2022-10-30T19:31:38;96845.25;;;20.14;42.84
28000;BME280;15328;50.860;10.562;2022-10-30T19:36:39;96848.44;;;19.95;43.15
28000;BME280;15328;50.860;10.562;2022-10-30T19:41:39;96846.28;;;19.92;43.15
28000;BME280;15328;50.860;10.562;2022-10-30T19:46:40;96848.47;;;20.00;42.69
28000;BME280;15328;50.860;10.562;2022-10-30T19:51:40;96855.50;;;20.17;42.08
28000;BME280;15328;50.860;10.562;2022-10-30T19:56:41;96853.34;;;20.14;41.58
28000;BME280;15328;50.860;10.562;2022-10-30T20:01:42;96859.28;;;20.16;40.94
28000;BME280;15328;50.860;10.562;2022-10-30T20:06:43;96863.63;;;20.32;40.75
28000;BME280;15328;50.860;10.562;2022-10-30T20:11:43;96866.34;;;20.37;40.22
28000;BME280;15328;50.860;10.562;2022-10-30T20:16:44;96860.97;;;20.42;39.95
28000;BME280;15328;50.860;10.562;2022-10-30T20:21:44;96863.63;;;20.32;39.92
28000;BME280;15328;50.860;10.562;2022-10-30T20:26:44;96863.91;;;20.30;40.17
28000;BME280;15328;50.860;10.562;2022-10-30T20:31:45;96872.81;;;20.31;39.94
28000;BME280;15328;50.860;10.562;2022-10-30T20:36:45;96872.00;;;20.35;39.86
28000;BME280;15328;50.860;10.562;2022-10-30T20:41:45;96871.75;;;20.47;39.63
28000;BME280;15328;50.860;10.562;2022-10-30T20:46:46;96868.72;;;20.23;40.01
28000;BME280;15328;50.860;10.562;2022-10-30T20:51:46;96869.84;;;20.27;39.40
28000;BME280;15328;50.860;10.562;2022-10-30T20:56:47;96876.84;;;20.13;39.81
28000;BME280;15328;50.860;10.562;2022-10-30T21:01:47;96876.56;;;20.25;39.85
28000;BME280;15328;50.860;10.562;2022-10-30T21:06:47;96879.56;;;20.38;39.61
28000;BME280;15328;50.860;10.562;2022-10-30T21:11:48;96891.16;;;20.19;40.24
28000;BME280;15328;50.860;10.562;2022-10-30T21:16:48;96895.47;;;20.04;40.74
28000;BME280;15328;50.860;10.562;2022-10-30T21:21:48;96889.47;;;19.97;40.87
28000;BME280;15328;50.860;10.562;2022-10-30T21:26:49;96881.41;;;20.08;41.13
28000;BME280;15328;50.860;10.562;2022-10-30T21:31:50;96881.63;;;19.81;41.89
28000;BME280;15328;50.860;10.562;2022-10-30T21:36:50;96895.38;;;19.79;41.86
28000;BME280;15328;50.860;10.562;2022-10-30T21:41:50;96884.34;;;19.91;41.62
28000;BME280;15328;50.860;10.562;2022-10-30T21:46:51;96889.97;;;19.74;42.20
28000;BME280;15328;50.860;10.562;2022-10-30T21:51:51;96891.91;;;19.89;41.91
28000;BME280;15328;50.860;10.562;2022-10-30T21:56:51;96888.09;;;19.74;42.00
28000;BME280;15328;50.860;10.562;2022-10-30T22:01:52;96904.78;;;19.71;42.16
28000;BME280;15328;50.860;10.562;2022-10-30T22:06:52;96893.16;;;19.61;42.58
28000;BME280;15328;50.860;10.562;2022-10-30T22:11:52;96893.91;;;19.51;43.00
28000;BME280;15328;50.860;10.562;2022-10-30T22:16:53;96904.75;;;19.56;42.77
28000;BME280;15328;50.860;10.562;2022-10-30T22:21:53;96895.03;;;19.55;42.83
28000;BME280;15328;50.860;10.562;2022-10-30T22:26:53;96904.34;;;19.37;43.51
28000;BME280;15328;50.860;10.562;2022-10-30T22:31:54;96904.69;;;19.46;43.07
28000;BME280;15328;50.860;10.562;2022-10-30T22:36:54;96911.91;;;19.40;43.73
28000;BME280;15328;50.860;10.562;2022-10-30T22:41:54;96921.09;;;19.44;44.00
28000;BME280;15328;50.860;10.562;2022-10-30T22:46:55;96931.06;;;19.44;44.06
28000;BME280;15328;50.860;10.562;2022-10-30T22:51:55;96925.88;;;19.27;44.20
28000;BME280;15328;50.860;10.562;2022-10-30T22:56:55;96929.53;;;19.11;44.43
28000;BME280;15328;50.860;10.562;2022-10-30T23:01:56;96930.06;;;19.08;44.76
28000;BME280;15328;50.860;10.562;2022-10-30T23:06:56;96929.00;;;19.14;44.57
28000;BME280;15328;50.860;10.562;2022-10-30T23:11:56;96934.09;;;19.05;45.26
28000;BME280;15328;50.860;10.562;2022-10-30T23:16:57;96944.78;;;18.90;45.75
28000;BME280;15328;50.860;10.562;2022-10-30T23:21:58;96937.38;;;18.75;46.21
28000;BME280;15328;50.860;10.562;2022-10-30T23:26:58;96940.25;;;18.64;46.37
28000;BME280;15328;50.860;10.562;2022-10-30T23:31:58;96950.00;;;18.43;46.91
28000;BME280;15328;50.860;10.562;2022-10-30T23:36:59;96956.66;;;18.35;47.26
28000;BME280;15328;50.860;10.562;2022-10-30T23:41:59;96961.88;;;18.20;47.70
28000;BME280;15328;50.860;10.562;2022-10-30T23:47:00;96965.59;;;18.14;47.89
28000;BME280;15328;50.860;10.562;2022-10-30T23:52:00;96969.78;;;18.05;48.11
28000;BME280;15328;50.860;10.562;2022-10-30T23:57:01;96970.94;;;17.87;48.78
